Time;durP1;ratioP1;P1;durP2;ratioP2;P2;SDS_P1;SDS_P2;PMS_P1;PMS_P2;Temp;Humidity;BMP_temperature;BMP_pressure;BME280_temperature;BME280_humidity;BME280_pressure;Samples;Min_cycle;Max_cycle;Signal;HPM_P1;HPM_P2
2022/06/02 00:09:08;;;;;;;;;5.80;3.20;;;;;15.61;99.17;101421.28;6247437;22;45402;-85
2022/06/02 00:12:08;;;;;;;;;3.40;3.40;;;;;15.56;96.30;101410.06;6246867;22;46154;-83
2022/06/02 00:15:07;;;;;;;;;3.20;3.20;;;;;15.50;97.19;101417.75;6208559;22;45160;-83
2022/06/02 00:17:45;;;;;;;;;2.00;2.00;;;;;15.44;100.00;101424.41;6243484;22;45108;-84
2022/06/02 00:20:24;;;;;;;;;3.00;3.00;;;;;15.38;96.15;101428.44;6252324;22;44766;-83
2022/06/02 00:23:27;;;;;;;;;4.80;2.60;;;;;15.36;98.39;101429.50;6225861;22;46679;-85
2022/06/02 00:26:14;;;;;;;;;4.00;4.00;;;;;15.29;100.00;101430.94;6248183;22;44798;-84
2022/06/02 00:29:10;;;;;;;;;2.60;2.00;;;;;15.24;100.00;101438.47;6218725;22;44677;-84
2022/06/02 00:32:30;;;;;;;;;4.00;3.00;;;;;15.16;100.00;101439.03;6248083;22;44762;-85
2022/06/02 00:35:31;;;;;;;;;3.00;3.00;;;;;15.11;100.00;101441.19;6240659;22;45145;-84
2022/06/02 00:38:51;;;;;;;;;3.00;3.00;;;;;15.07;100.00;101447.75;6213592;22;44766;-85
2022/06/02 00:41:56;;;;;;;;;;;;;;;;;;;;;
2022/06/02 00:45:04;;;;;;;;;3.60;2.00;;;;;14.97;99.70;101447.56;6247454;22;69257;-86
2022/06/02 00:48:08;;;;;;;;;1.80;1.80;;;;;14.90;100.00;101443.66;6266252;22;45146;-85
2022/06/02 00:51:18;;;;;;;;;2.00;2.00;;;;;14.87;100.00;101442.06;6153708;23;45571;-84
2022/06/02 00:58:10;;;;;;;;;;;;;;;;;;;;;
2022/06/02 01:01:33;;;;;;;;;3.60;3.60;;;;;14.68;100.00;101443.50;6164234;23;75370;-85
2022/06/02 01:04:06;;;;;;;;;3.40;2.20;;;;;14.60;100.00;101425.34;6075698;23;44961;-85
2022/06/02 01:06:38;;;;;;;;;4.60;4.60;;;;;14.58;100.00;101436.16;6080778;23;44868;-84
2022/06/02 01:13:22;;;;;;;;;3.00;3.00;;;;;14.43;100.00;101425.69;5976556;23;44914;-85
2022/06/02 01:16:37;;;;;;;;;3.60;2.20;;;;;14.42;100.00;101426.66;5954583;23;45234;-85
2022/06/02 01:19:23;;;;;;;;;5.00;4.00;;;;;14.35;100.00;101427.09;5976227;23;44841;-85
2022/06/02 01:22:13;;;;;;;;;4.00;4.00;;;;;14.32;100.00;101427.31;5978085;23;45499;-86
2022/06/02 01:25:09;;;;;;;;;3.00;3.00;;;;;14.26;100.00;101419.72;6008876;23;45077;-86
2022/06/02 01:27:59;;;;;;;;;3.80;3.40;;;;;14.22;100.00;101426.28;6037283;23;45493;-85
2022/06/02 01:34:39;;;;;;;;;4.00;4.00;;;;;14.14;100.00;101418.78;6006599;23;45326;-86
2022/06/02 01:37:36;;;;;;;;;5.60;3.00;;;;;14.09;100.00;101426.28;6038531;23;47667;-83
2022/06/02 01:40:23;;;;;;;;;4.00;4.00;;;;;14.05;100.00;101422.13;6036309;23;45308;-83
2022/06/02 01:43:17;;;;;;;;;4.00;4.00;;;;;14.02;100.00;101424.13;6047159;23;45383;-85
2022/06/02 01:46:36;;;;;;;;;4.00;3.00;;;;;13.97;100.00;101418.25;6065685;23;44892;-85
2022/06/02 01:49:46;;;;;;;;;3.20;3.20;;;;;13.95;100.00;101434.41;6082763;23;46613;-84
2022/06/02 01:53:03;;;;;;;;;3.80;3.80;;;;;13.91;100.00;101438.25;6154788;23;44766;-85
2022/06/02 01:56:03;;;;;;;;;4.80;4.80;;;;;13.86;100.00;101443.91;6141017;23;44775;-87
2022/06/02 02:13:10;;;;;;;;;;;;;;;;;;;;;
2022/06/02 02:16:06;;;;;;;;;6.50;5.50;;;;;13.68;100.00;101430.97;6188681;23;76525;-86
2022/06/02 02:18:38;;;;;;;;;7.80;5.80;;;;;13.63;100.00;101433.97;6158293;23;44679;-84
2022/06/02 02:21:39;;;;;;;;;;;;;;;;;;;;;
2022/06/02 02:24:45;;;;;;;;;6.25;5.75;;;;;13.58;100.00;101428.09;6159641;23;69413;-85
2022/06/02 02:27:23;;;;;;;;;7.75;7.75;;;;;13.56;100.00;101432.69;6191787;23;45341;-87
2022/06/02 02:30:05;;;;;;;;;3.80;3.00;;;;;13.52;100.00;101424.03;6181376;23;45252;-85
2022/06/02 02:32:46;;;;;;;;;9.50;7.50;;;;;13.53;100.00;101430.22;6186117;23;44747;-85
2022/06/02 02:35:55;;;;;;;;;;;;;;;;;;;;;
2022/06/02 02:38:30;;;;;;;;;5.75;5.75;;;;;13.50;100.00;101417.09;6184120;23;73927;-85
2022/06/02 02:41:21;;;;;;;;;5.40;5.40;;;;;13.51;100.00;101421.47;6170938;22;45332;-85
2022/06/02 02:44:31;;;;;;;;;8.80;7.60;;;;;13.48;100.00;101411.84;6268742;22;44726;-85
2022/06/02 02:47:56;;;;;;;;;;;;;;;;;;;;;
2022/06/02 02:55:10;;;;;;;;;7.50;7.50;;;;;13.47;100.00;101433.31;6094994;23;44798;-86
2022/06/02 02:58:02;;;;;;;;;;;;;;;;;;;;;
2022/06/02 03:01:07;;;;;;;;;5.50;5.50;;;;;13.41;100.00;101431.91;6008962;23;69155;-85
2022/06/02 03:04:01;;;;;;;;;8.25;7.25;;;;;13.38;100.00;101432.97;6009472;23;45753;-86
2022/06/02 03:07:17;;;;;;;;;7.00;7.00;;;;;13.36;100.00;101439.38;6007192;23;45372;-88
2022/06/02 03:10:31;;;;;;;;;8.00;8.00;;;;;13.29;100.00;101438.06;6005743;23;45351;-88
2022/06/02 03:13:41;;;;;;;;;8.50;8.50;;;;;13.27;100.00;101424.84;6008783;23;45284;-87
2022/06/02 03:16:21;;;;;;;;;5.50;5.50;;;;;13.23;100.00;101417.13;6016033;23;45087;-87
2022/06/02 03:19:40;;;;;;;;;2.20;2.20;;;;;13.21;100.00;101414.53;6004273;23;44860;-88
2022/06/02 03:22:50;;;;;;;;;6.75;6.75;;;;;13.21;100.00;101427.88;5929890;23;44811;-87
2022/06/02 03:26:04;;;;;;;;;7.00;7.00;;;;;13.15;100.00;101432.75;5967743;23;44770;-88
2022/06/02 03:29:20;;;;;;;;;7.25;6.50;;;;;13.07;100.00;101431.47;5923547;23;45904;-84
2022/06/02 03:36:12;;;;;;;;;;;;;;;;;;;;;
2022/06/02 03:38:59;;;;;;;;;10.25;8.50;;;;;12.97;100.00;101445.53;6068928;23;68932;-88
2022/06/02 03:42:03;;;;;;;;;8.00;6.50;;;;;12.93;100.00;101436.00;6048565;23;46665;-86
2022/06/02 03:44:54;;;;;;;;;13.00;10.75;;;;;12.90;100.00;101433.53;6053708;23;44787;-85
2022/06/02 03:47:41;;;;;;;;;7.50;7.50;;;;;12.84;100.00;101442.78;6052245;23;44753;-87
2022/06/02 03:51:02;;;;;;;;;10.00;8.25;;;;;12.87;100.00;101445.28;6073754;23;45321;-85
2022/06/02 03:54:04;;;;;;;;;7.25;6.75;;;;;12.86;100.00;101433.75;6049416;23;46138;-86
2022/06/02 03:57:00;;;;;;;;;6.60;5.00;;;;;12.88;100.00;101438.97;6150893;23;44843;-87
2022/06/02 03:59:53;;;;;;;;;6.00;6.00;;;;;12.84;100.00;101424.97;6103158;23;44844;-87
2022/06/02 04:03:20;;;;;;;;;;;;;;;;;;;;;
2022/06/02 04:06:23;;;;;;;;;9.50;8.25;;;;;12.99;100.00;101438.25;6037357;23;74208;-85
2022/06/02 04:09:12;;;;;;;;;;;;;;;;;;;;;
2022/06/02 04:15:40;;;;;;;;;9.75;9.75;;;;;13.32;100.00;101441.38;6045144;23;44707;-85
2022/06/02 04:21:51;;;;;;;;;6.80;6.80;;;;;13.64;100.00;101459.72;6041827;23;44611;-87
2022/06/02 04:56:31;;;;;;;;;7.00;5.60;;;;;15.57;100.00;101473.41;6252927;22;45083;-87
2022/06/02 04:59:26;;;;;;;;;7.80;7.80;;;;;15.64;100.00;101471.13;6251513;22;44710;-87
2022/06/02 05:02:04;;;;;;;;;10.20;8.00;;;;;15.65;100.00;101470.16;6285894;22;45140;-86
2022/06/02 05:04:47;;;;;;;;;7.25;4.50;;;;;15.72;100.00;101466.06;6260521;22;44707;-86
2022/06/02 05:07:37;;;;;;;;;8.50;8.50;;;;;15.67;100.00;101462.88;6289880;22;45181;-90
2022/06/02 05:10:20;;;;;;;;;8.60;8.00;;;;;15.68;100.00;101456.53;6290084;22;44854;-91
2022/06/02 05:13:00;;;;;;;;;8.20;7.20;;;;;15.69;100.00;101463.59;6284835;22;44590;-90
2022/06/02 05:15:56;;;;;;;;;7.50;7.50;;;;;15.67;100.00;101468.22;6258503;22;45278;-90
2022/06/02 05:19:10;;;;;;;;;9.80;7.00;;;;;15.69;100.00;101466.28;6262186;22;45391;-90
2022/06/02 05:22:18;;;;;;;;;8.80;7.60;;;;;15.70;100.00;101470.66;6261294;22;45239;-90
2022/06/02 05:25:17;;;;;;;;;6.60;6.60;;;;;15.63;100.00;101464.94;6256132;22;44691;-88
2022/06/02 05:28:01;;;;;;;;;6.50;6.50;;;;;15.60;100.00;101470.47;6283700;22;45238;-90
2022/06/02 05:31:05;;;;;;;;;10.75;8.25;;;;;15.56;100.00;101468.16;6254380;22;46667;-91
2022/06/02 05:33:57;;;;;;;;;9.20;9.20;;;;;15.47;100.00;101468.84;6191153;23;45216;-91
2022/06/02 05:36:50;;;;;;;;;7.00;7.00;;;;;15.53;100.00;101468.41;6172231;23;44604;-85
2022/06/02 05:39:29;;;;;;;;;8.50;8.50;;;;;15.52;100.00;101463.97;6195428;23;45551;-89
2022/06/02 05:42:23;;;;;;;;;6.80;6.60;;;;;15.58;100.00;101461.72;6168776;23;45310;-90
2022/06/02 05:45:09;;;;;;;;;6.40;5.80;;;;;15.65;100.00;101462.97;6191605;23;44644;-88
2022/06/02 05:47:49;;;;;;;;;9.20;8.40;;;;;15.56;100.00;101469.00;6171930;23;45326;-86
2022/06/02 05:50:34;;;;;;;;;12.25;9.25;;;;;15.57;100.00;101470.72;6152951;23;45463;-84
2022/06/02 05:53:09;;;;;;;;;7.25;7.25;;;;;15.62;100.00;101473.91;6164872;23;45305;-85
2022/06/02 05:56:07;;;;;;;;;9.00;8.00;;;;;15.66;100.00;101471.84;6160371;23;45363;-85
2022/06/02 05:59:00;;;;;;;;;10.80;7.60;;;;;15.63;100.00;101470.28;6075173;23;44802;-90
2022/06/02 06:01:51;;;;;;;;;8.50;8.50;;;;;15.66;100.00;101462.03;6076213;23;45278;-85
2022/06/02 06:04:23;;;;;;;;;7.60;7.60;;;;;15.65;100.00;101462.97;6069361;23;45439;-84
2022/06/02 06:07:09;;;;;;;;;11.00;11.00;;;;;15.60;100.00;101462.44;6082784;23;45420;-85
2022/06/02 06:10:05;;;;;;;;;9.60;8.00;;;;;15.47;100.00;101466.16;6128520;23;45185;-86
2022/06/02 06:12:55;;;;;;;;;11.25;11.25;;;;;15.38;100.00;101473.94;6158015;23;44798;-87
2022/06/02 06:15:43;;;;;;;;;7.75;6.75;;;;;15.38;100.00;101473.09;6160017;23;44959;-85
2022/06/02 06:18:26;;;;;;;;;8.60;8.60;;;;;15.49;100.00;101469.59;6162311;23;45685;-87
2022/06/02 06:21:08;;;;;;;;;11.80;7.40;;;;;15.46;100.00;101477.84;6135245;23;44768;-85
2022/06/02 06:24:12;;;;;;;;;8.00;7.75;;;;;15.47;100.00;101477.72;6132587;23;44895;-85
2022/06/02 06:26:49;;;;;;;;;13.00;8.25;;;;;15.49;100.00;101472.28;6064801;23;45493;-85
2022/06/02 06:29:33;;;;;;;;;7.40;6.40;;;;;15.49;100.00;101469.59;6064146;23;45210;-85
2022/06/02 06:32:03;;;;;;;;;5.00;5.00;;;;;15.63;100.00;101466.72;6064671;23;44836;-85
2022/06/02 06:34:46;;;;;;;;;9.75;8.50;;;;;15.64;100.00;101471.97;6072791;23;45127;-86
2022/06/02 06:37:20;;;;;;;;;9.25;9.25;;;;;15.53;100.00;101461.22;6097424;23;45182;-87
2022/06/02 06:40:08;;;;;;;;;7.60;7.60;;;;;15.46;100.00;101470.66;6102106;23;44805;-86
2022/06/02 06:42:57;;;;;;;;;8.40;6.60;;;;;15.74;100.00;101461.41;6099702;23;44844;-84
2022/06/02 06:46:02;;;;;;;;;11.25;9.25;;;;;16.07;100.00;101465.13;6102089;23;44782;-85
2022/06/02 06:48:42;;;;;;;;;7.20;4.20;;;;;16.35;100.00;101464.66;6105753;23;45454;-84
2022/06/02 06:51:36;;;;;;;;;9.00;9.00;;;;;16.63;100.00;101473.16;6118370;23;44739;-86
2022/06/02 06:54:11;;;;;;;;;4.40;3.00;;;;;16.94;100.00;101472.41;6114314;23;44749;-85
2022/06/02 06:56:52;;;;;;;;;10.20;9.00;;;;;17.25;100.00;101469.00;6114426;23;44690;-86
2022/06/02 06:59:44;;;;;;;;;9.00;9.00;;;;;17.45;100.00;101481.63;6106463;23;45115;-84
2022/06/02 07:02:28;;;;;;;;;8.00;8.00;;;;;17.84;100.00;101482.81;6103524;23;44796;-83
2022/06/02 07:05:12;;;;;;;;;7.00;7.00;;;;;18.24;100.00;101476.66;6227828;22;44845;-84
2022/06/02 07:08:11;;;;;;;;;8.60;8.60;;;;;18.32;100.00;101473.28;6230327;22;44703;-84
2022/06/02 07:10:55;;;;;;;;;7.40;7.40;;;;;18.33;99.80;101480.41;6201325;22;45253;-84
2022/06/02 07:13:49;;;;;;;;;9.80;8.60;;;;;18.37;99.47;101474.63;6228166;22;44773;-87
2022/06/02 07:16:30;;;;;;;;;9.20;9.20;;;;;18.65;97.93;101482.91;6207514;22;44650;-85
2022/06/02 07:18:58;;;;;;;;;2.75;2.25;;;;;18.78;98.03;101485.41;6199752;22;44881;-86
2022/06/02 07:21:41;;;;;;;;;7.80;7.20;;;;;18.92;96.20;101485.84;6235148;22;45473;-89
2022/06/02 07:24:29;;;;;;;;;9.00;8.00;;;;;19.05;93.58;101477.53;6235920;22;44647;-86
2022/06/02 07:27:18;;;;;;;;;10.00;8.00;;;;;19.27;95.48;101477.25;6226110;22;44634;-85
2022/06/02 07:29:50;;;;;;;;;10.00;8.40;;;;;19.28;92.54;101472.72;6232088;22;44841;-85
2022/06/02 07:32:37;;;;;;;;;5.00;5.00;;;;;19.34;94.06;101471.28;6233230;22;45079;-86
2022/06/02 07:35:24;;;;;;;;;6.20;6.20;;;;;19.40;91.91;101476.13;6230114;22;44795;-86
2022/06/02 07:38:12;;;;;;;;;7.60;6.40;;;;;19.50;92.67;101472.44;6204475;22;44671;-86
2022/06/02 07:40:49;;;;;;;;;3.00;2.40;;;;;19.47;90.66;101490.72;6206611;22;44874;-86
2022/06/02 07:43:17;;;;;;;;;5.80;5.80;;;;;19.59;91.79;101491.44;6206534;22;45231;-87
2022/06/02 07:45:51;;;;;;;;;10.40;9.80;;;;;19.51;91.53;101495.69;6200829;22;44674;-87
2022/06/02 07:48:38;;;;;;;;;10.00;8.40;;;;;19.26;91.85;101496.25;6236391;22;44567;-86
2022/06/02 07:51:28;;;;;;;;;4.20;4.20;;;;;19.34;91.73;101495.53;6210152;22;44811;-86
2022/06/02 07:54:16;;;;;;;;;8.00;8.00;;;;;19.43;91.43;101490.16;6211187;22;44986;-87
2022/06/02 07:56:51;;;;;;;;;6.20;6.20;;;;;19.63;90.88;101482.97;6219106;22;44623;-86
2022/06/02 07:59:28;;;;;;;;;6.40;6.40;;;;;19.87;87.45;101479.81;6240249;22;44718;-86
2022/06/02 08:02:23;;;;;;;;;7.80;5.20;;;;;20.04;85.80;101478.19;6241491;22;44725;-87
2022/06/02 08:05:19;;;;;;;;;7.00;7.00;;;;;20.19;84.64;101473.19;6255840;22;45099;-86
2022/06/02 08:07:59;;;;;;;;;5.20;5.20;;;;;20.20;83.39;101473.03;6267274;22;44736;-85
2022/06/02 08:10:30;;;;;;;;;7.00;6.00;;;;;20.33;84.46;101478.09;6267970;22;44606;-86
2022/06/02 08:12:56;;;;;;;;;9.20;6.60;;;;;20.18;81.78;101468.78;6263770;22;44761;-85
2022/06/02 08:15:27;;;;;;;;;10.50;8.75;;;;;20.15;82.87;101467.22;6265132;22;45019;-86
2022/06/02 08:18:21;;;;;;;;;9.00;8.20;;;;;20.47;83.71;101458.75;6256257;22;44774;-84
2022/06/02 08:20:56;;;;;;;;;4.00;4.00;;;;;20.49;82.40;101458.59;6255685;22;44627;-88
2022/06/02 08:23:24;;;;;;;;;5.40;5.00;;;;;20.74;80.62;101451.63;6241240;22;44747;-87
2022/06/02 08:25:55;;;;;;;;;8.40;8.40;;;;;21.08;76.35;101448.28;6237118;22;45345;-87
2022/06/02 08:28:31;;;;;;;;;5.40;5.20;;;;;21.35;74.60;101450.94;6263426;22;44579;-86
2022/06/02 08:31:34;;;;;;;;;7.00;6.00;;;;;21.49;74.68;101455.81;6238659;22;44726;-87
2022/06/02 08:34:21;;;;;;;;;4.00;4.00;;;;;21.78;72.90;101447.41;6236138;22;44965;-85
2022/06/02 08:37:26;;;;;;;;;4.00;3.00;;;;;21.92;69.87;101440.56;6257256;22;45084;-84
2022/06/02 08:40:14;;;;;;;;;5.40;3.60;;;;;22.06;69.34;101431.00;6160479;23;44732;-85
2022/06/02 08:43:09;;;;;;;;;5.00;5.00;;;;;22.20;67.49;101430.44;6159797;23;44795;-85
2022/06/02 08:45:42;;;;;;;;;6.00;6.00;;;;;22.10;68.71;101431.53;6161417;23;45332;-83
2022/06/02 08:48:18;;;;;;;;;4.60;3.20;;;;;22.16;68.04;101436.34;6158706;23;45119;-84
2022/06/02 08:51:02;;;;;;;;;5.40;5.40;;;;;22.33;66.69;101430.81;6159029;23;44776;-83
2022/06/02 08:53:49;;;;;;;;;4.40;4.00;;;;;22.46;66.22;101432.25;6163999;23;44747;-84
2022/06/02 08:56:39;;;;;;;;;6.60;4.00;;;;;22.66;65.76;101425.53;6138484;23;44781;-83
2022/06/02 08:59:35;;;;;;;;;3.60;3.60;;;;;22.65;64.01;101433.84;6160038;23;45414;-84
2022/06/02 09:02:30;;;;;;;;;4.00;4.00;;;;;22.82;63.22;101430.16;6158310;23;44688;-85
2022/06/02 09:05:19;;;;;;;;;4.40;4.40;;;;;22.94;62.06;101430.72;6098621;23;44860;-83
2022/06/02 09:07:52;;;;;;;;;6.80;4.80;;;;;22.75;61.61;101421.84;6102106;23;44786;-87
2022/06/02 09:10:44;;;;;;;;;7.20;7.20;;;;;22.75;61.13;101429.13;6102707;23;45178;-84
2022/06/02 09:13:34;;;;;;;;;5.60;5.60;;;;;22.69;62.22;101425.22;6099790;23;44611;-83
2022/06/02 09:16:16;;;;;;;;;6.60;5.40;;;;;22.53;64.17;101427.84;6121251;23;44789;-86
2022/06/02 09:19:00;;;;;;;;;3.20;3.20;;;;;22.19;62.50;101433.28;6164429;23;44942;-84
2022/06/02 09:21:32;;;;;;;;;7.00;6.00;;;;;22.08;64.49;101424.41;6195963;23;45244;-85
2022/06/02 09:23:58;;;;;;;;;3.60;3.60;;;;;21.91;67.24;101427.22;6200219;23;44679;-85
2022/06/02 09:26:53;;;;;;;;;5.00;5.00;;;;;21.74;67.17;101437.91;6168423;23;45050;-86
2022/06/02 09:29:23;;;;;;;;;6.40;5.20;;;;;21.91;66.43;101433.47;6190685;23;45134;-86
2022/06/02 09:32:26;;;;;;;;;4.20;3.20;;;;;22.03;65.41;101437.59;6193907;23;45042;-87
2022/06/02 09:35:01;;;;;;;;;6.40;4.60;;;;;22.21;65.95;101440.25;6195698;23;44734;-85
2022/06/02 09:37:29;;;;;;;;;3.80;3.80;;;;;22.07;65.95;101435.41;6170291;23;44906;-85
2022/06/02 09:40:07;;;;;;;;;5.00;5.00;;;;;21.88;64.89;101439.19;6194292;23;45217;-85
2022/06/02 09:42:54;;;;;;;;;5.40;5.40;;;;;21.97;64.48;101430.13;6251808;22;45015;-86
2022/06/02 09:45:34;;;;;;;;;4.20;4.20;;;;;22.20;65.02;101433.16;6228064;22;44829;-86
2022/06/02 09:48:21;;;;;;;;;6.00;5.20;;;;;22.19;64.18;101434.16;6229273;22;44778;-86
2022/06/02 09:50:53;;;;;;;;;6.40;6.40;;;;;22.11;66.76;101433.25;6219594;22;44781;-76
2022/06/02 09:53:35;;;;;;;;;8.40;6.80;;;;;22.03;65.82;101431.31;6245414;22;45197;-75
2022/06/02 09:56:20;;;;;;;;;4.60;4.40;;;;;22.20;63.05;101429.59;6242469;22;45262;-85
2022/06/02 09:59:23;;;;;;;;;5.00;5.00;;;;;22.28;61.06;101438.59;6246334;22;45065;-84
2022/06/02 10:02:28;;;;;;;;;12.20;11.20;;;;;21.96;62.42;101417.59;6247178;22;44722;-83
2022/06/02 10:05:20;;;;;;;;;4.00;4.00;;;;;21.90;62.97;101420.91;6248019;22;45082;-84
2022/06/02 10:08:03;;;;;;;;;5.00;5.00;;;;;22.03;63.25;101417.78;6250290;22;45184;-86
2022/06/02 10:10:55;;;;;;;;;5.40;5.00;;;;;22.21;61.90;101412.34;6252174;22;44661;-84
2022/06/02 10:13:58;;;;;;;;;4.80;4.00;;;;;22.42;61.67;101414.63;6253726;22;44780;-84
2022/06/02 10:16:55;;;;;;;;;2.20;2.20;;;;;22.41;61.41;101421.91;6257480;22;45222;-88
2022/06/02 10:19:40;;;;;;;;;5.00;5.00;;;;;22.49;61.17;101415.69;6256946;22;44673;-87
2022/06/02 10:22:32;;;;;;;;;3.60;3.60;;;;;22.62;59.86;101407.06;6258710;22;44642;-89
2022/06/02 10:31:51;;;;;;;;;5.20;5.20;;;;;22.68;56.71;101399.16;6268142;22;44745;-88
2022/06/02 10:34:54;;;;;;;;;3.60;3.60;;;;;22.79;58.55;101398.81;6242903;22;44818;-90
2022/06/02 10:37:25;;;;;;;;;4.40;4.40;;;;;22.57;56.80;101403.00;6271505;22;44877;-88
2022/06/02 10:40:27;;;;;;;;;5.80;4.80;;;;;22.69;57.06;101403.53;6244260;22;46519;-89
2022/06/02 10:43:21;;;;;;;;;3.60;3.60;;;;;22.91;57.00;101402.09;6264794;22;44720;-89
2022/06/02 10:46:11;;;;;;;;;5.60;5.60;;;;;23.02;56.95;101395.53;6245101;22;44741;-89
2022/06/02 10:48:58;;;;;;;;;1.60;1.60;;;;;23.06;55.11;101388.72;6221411;22;44795;-89
2022/06/02 10:52:07;;;;;;;;;3.80;3.80;;;;;23.20;55.46;101388.03;6272083;22;45187;-89
2022/06/02 10:54:35;;;;;;;;;4.40;4.40;;;;;23.39;53.84;101391.44;6256374;22;44685;-90
2022/06/02 10:57:19;;;;;;;;;4.60;4.00;;;;;23.57;54.62;101389.41;6239971;22;45200;-90
2022/06/02 11:00:04;;;;;;;;;5.00;5.00;;;;;23.52;52.17;101398.03;6269684;22;44622;-88
2022/06/02 11:02:49;;;;;;;;;6.40;5.00;;;;;23.67;53.29;101386.53;6267431;22;45220;-91
2022/06/02 11:05:45;;;;;;;;;4.80;4.80;;;;;24.09;53.16;101378.94;6259253;22;44665;-88
2022/06/02 11:08:38;;;;;;;;;6.80;5.00;;;;;24.11;51.70;101376.88;6250101;22;45274;-87
2022/06/02 11:11:06;;;;;;;;;2.80;2.80;;;;;24.21;50.67;101368.53;6223513;22;45184;-88
2022/06/02 11:14:03;;;;;;;;;4.80;4.80;;;;;24.43;50.04;101363.38;6250703;22;45469;-88
2022/06/02 11:16:58;;;;;;;;;0.00;0.00;;;;;24.16;50.33;101357.34;6234309;22;44637;-87
2022/06/02 11:20:01;;;;;;;;;4.00;4.00;;;;;24.00;49.40;101365.59;6264073;22;44627;-88
2022/06/02 11:23:04;;;;;;;;;4.00;4.00;;;;;24.09;50.12;101354.50;6264363;22;44777;-89
2022/06/02 11:26:08;;;;;;;;;3.80;3.00;;;;;24.22;47.17;101356.66;6229307;22;45439;-88
2022/06/02 11:28:51;;;;;;;;;3.80;3.80;;;;;24.35;46.24;101354.22;6252798;22;44710;-85
2022/06/02 11:31:40;;;;;;;;;4.00;4.00;;;;;24.49;44.58;101354.50;6220740;22;45350;-88
2022/06/02 11:34:26;;;;;;;;;3.40;3.40;;;;;24.83;45.82;101357.69;6221975;22;44873;-89
2022/06/02 11:37:26;;;;;;;;;5.20;4.00;;;;;24.86;43.81;101351.06;6261535;22;45033;-91
2022/06/02 11:40:24;;;;;;;;;6.00;6.00;;;;;24.81;44.87;101350.75;6237444;22;44854;-92
2022/06/02 11:43:10;;;;;;;;;3.20;3.20;;;;;25.10;44.24;101347.31;6166369;23;44738;-88
2022/06/02 11:45:41;;;;;;;;;6.00;5.20;;;;;25.15;44.20;101346.78;6170962;23;44707;-88
2022/06/02 11:48:25;;;;;;;;;2.00;2.00;;;;;25.01;42.85;101340.22;6138937;23;45478;-88
2022/06/02 11:51:16;;;;;;;;;6.00;5.60;;;;;24.84;43.59;101334.06;6141960;23;44717;-89
2022/06/02 11:54:06;;;;;;;;;4.00;4.00;;;;;24.61;44.21;101321.34;6163383;23;44885;-90
2022/06/02 11:56:40;;;;;;;;;4.40;4.40;;;;;24.62;45.00;101341.19;6140868;23;44759;-90
2022/06/02 11:59:48;;;;;;;;;4.60;4.60;;;;;24.67;43.79;101335.22;6165296;23;45155;-90
2022/06/02 12:02:22;;;;;;;;;4.00;4.00;;;;;25.10;41.69;101326.41;6160309;23;44766;-87
2022/06/02 12:05:12;;;;;;;;;6.60;4.00;;;;;25.59;41.61;101331.38;6140495;23;44835;-88
2022/06/02 12:08:07;;;;;;;;;5.00;5.00;;;;;25.89;40.11;101329.53;6166958;23;44871;-88
2022/06/02 12:11:10;;;;;;;;;5.00;3.00;;;;;26.14;40.17;101329.22;6160496;23;46993;-90
2022/06/02 12:14:05;;;;;;;;;3.80;3.20;;;;;26.06;39.36;101326.59;6162225;23;44661;-90
2022/06/02 12:16:33;;;;;;;;;4.00;4.00;;;;;26.12;38.58;101326.69;6157347;23;44787;-90
2022/06/02 12:19:25;;;;;;;;;3.80;3.80;;;;;26.30;39.13;101317.25;6171364;22;44939;-90
2022/06/02 12:21:56;;;;;;;;;4.20;3.00;;;;;26.79;40.17;101311.09;6220113;22;46496;-87
2022/06/02 12:24:53;;;;;;;;;4.00;4.00;;;;;27.13;40.50;101302.22;6252922;22;44689;-86
2022/06/02 12:27:30;;;;;;;;;4.20;4.20;;;;;27.00;37.45;101302.91;6226624;22;44772;-87
2022/06/02 12:30:24;;;;;;;;;5.20;3.00;;;;;27.00;35.53;101307.50;6223105;22;44772;-87
2022/06/02 12:33:36;;;;;;;;;2.80;2.00;;;;;26.67;36.00;101294.41;6219917;22;45913;-85
2022/06/02 12:36:30;;;;;;;;;4.20;4.00;;;;;26.60;36.36;101283.44;6153796;23;45299;-86
2022/06/02 12:39:13;;;;;;;;;3.00;3.00;;;;;26.58;35.84;101288.25;6141702;23;45401;-86
2022/06/02 12:42:23;;;;;;;;;3.00;3.00;;;;;26.89;36.72;101281.63;6161677;23;44611;-88
2022/06/02 12:45:06;;;;;;;;;2.20;1.00;;;;;27.48;35.98;101272.22;6154993;23;45085;-85
2022/06/02 12:48:01;;;;;;;;;3.40;3.00;;;;;27.28;35.96;101270.22;6162435;23;44808;-85
2022/06/02 12:50:54;;;;;;;;;4.20;4.20;;;;;27.40;36.28;101265.84;6139444;23;44737;-85
2022/06/02 12:53:41;;;;;;;;;5.80;3.00;;;;;27.67;35.27;101266.88;6153002;23;44712;-84
2022/06/02 12:56:44;;;;;;;;;4.20;4.00;;;;;27.93;34.36;101266.16;6151759;23;45482;-85
2022/06/02 12:59:15;;;;;;;;;3.80;3.80;;;;;27.78;34.09;101262.75;6151686;23;45392;-85
2022/06/02 13:01:49;;;;;;;;;3.00;3.00;;;;;28.15;34.93;101271.50;6152882;23;44687;-85
2022/06/02 13:04:34;;;;;;;;;3.40;3.00;;;;;28.55;34.33;101272.47;6155128;23;44880;-85
2022/06/02 13:07:33;;;;;;;;;3.40;3.40;;;;;28.89;33.24;101265.97;6157854;23;45192;-86
2022/06/02 13:10:20;;;;;;;;;4.00;4.00;;;;;28.46;32.33;101264.66;6210102;22;44796;-83
2022/06/02 13:13:18;;;;;;;;;3.60;3.60;;;;;27.85;34.01;101260.03;6226370;22;44643;-85
2022/06/02 13:15:55;;;;;;;;;6.80;6.40;;;;;28.02;36.83;101266.84;6231775;22;44642;-85
2022/06/02 13:18:36;;;;;;;;;3.40;3.00;;;;;27.56;32.99;101266.56;6251265;22;45401;-85
2022/06/02 13:21:50;;;;;;;;;7.40;5.00;;;;;28.27;33.85;101269.00;6249991;22;44813;-86
2022/06/02 13:24:34;;;;;;;;;7.00;5.60;;;;;28.77;32.86;101264.94;6251728;22;44756;-85
2022/06/02 13:27:21;;;;;;;;;3.20;3.20;;;;;28.63;34.33;101260.50;6249645;22;45317;-86
2022/06/02 13:30:11;;;;;;;;;4.40;3.00;;;;;28.25;32.70;101252.84;6247345;22;44945;-86
2022/06/02 13:32:42;;;;;;;;;2.40;2.40;;;;;27.89;33.65;101264.03;6252545;22;45330;-84
2022/06/02 13:35:23;;;;;;;;;3.80;3.00;;;;;28.04;32.77;101275.66;6225911;22;44669;-85
2022/06/02 13:37:58;;;;;;;;;4.80;3.40;;;;;28.55;32.07;101272.47;6251559;22;44641;-85
2022/06/02 13:40:45;;;;;;;;;2.80;2.80;;;;;28.65;29.71;101269.31;6225175;22;47269;-85
2022/06/02 13:43:44;;;;;;;;;2.00;2.00;;;;;28.97;29.64;101267.69;6227265;22;44798;-88
2022/06/02 13:46:48;;;;;;;;;6.40;5.40;;;;;29.11;29.42;101271.28;6253614;22;44654;-85
2022/06/02 13:49:47;;;;;;;;;2.40;2.40;;;;;29.11;29.23;101271.28;6211427;22;44775;-84
2022/06/02 13:52:37;;;;;;;;;3.00;3.00;;;;;29.23;29.05;101274.19;6249566;22;45255;-85
2022/06/02 13:58:46;;;;;;;;;4.00;3.00;;;;;29.62;28.01;101268.66;6250597;22;45311;-86
2022/06/02 14:01:34;;;;;;;;;2.00;2.00;;;;;30.21;29.03;101264.00;6250891;22;44726;-84
2022/06/02 14:04:30;;;;;;;;;4.40;4.00;;;;;29.93;26.13;101256.97;6248229;22;45191;-86
2022/06/02 14:07:01;;;;;;;;;3.00;3.00;;;;;29.79;29.98;101252.59;6222783;22;44679;-87
2022/06/02 14:09:51;;;;;;;;;5.00;5.00;;;;;29.87;27.28;101246.00;6248956;22;44816;-84
2022/06/02 14:12:45;;;;;;;;;1.00;1.00;;;;;30.00;29.67;101237.75;6253352;22;44802;-85
2022/06/02 14:19:11;;;;;;;;;1.60;1.60;;;;;29.34;27.28;101254.38;6250898;22;44603;-85
2022/06/02 14:22:22;;;;;;;;;2.40;2.40;;;;;29.04;27.67;101240.31;6225944;22;44605;-84
2022/06/02 14:25:05;;;;;;;;;2.60;2.60;;;;;28.70;29.55;101231.25;6233705;22;44733;-85
2022/06/02 14:27:44;;;;;;;;;2.20;2.20;;;;;28.45;29.57;101232.94;6260659;22;46706;-84
2022/06/02 14:30:34;;;;;;;;;2.80;2.80;;;;;28.31;28.60;101240.22;6240841;22;44623;-85
2022/06/02 14:33:18;;;;;;;;;2.60;2.60;;;;;28.76;27.73;101237.78;6265486;22;45202;-84
2022/06/02 14:36:03;;;;;;;;;2.40;2.40;;;;;29.42;27.47;101235.00;6234996;22;44750;-83
2022/06/02 14:39:02;;;;;;;;;2.00;2.00;;;;;30.19;26.32;101238.72;6264558;22;45066;-84
2022/06/02 14:41:29;;;;;;;;;3.80;2.60;;;;;30.49;28.23;101224.38;6254970;22;45168;-84
2022/06/02 14:44:19;;;;;;;;;2.00;2.00;;;;;30.50;25.47;101226.91;6233853;22;44612;-84
2022/06/02 14:47:12;;;;;;;;;2.20;2.00;;;;;30.72;27.63;101230.16;6256336;22;44797;-84
2022/06/02 14:50:27;;;;;;;;;2.00;2.00;;;;;30.13;25.58;101224.00;6255482;22;45246;-85
2022/06/02 14:53:02;;;;;;;;;1.20;1.20;;;;;30.21;26.07;101217.41;6158856;23;44863;-85
2022/06/02 14:56:02;;;;;;;;;3.00;3.00;;;;;29.81;27.34;101214.00;6159726;23;44722;-84